sensor_id;sensor_type;location;lat;lon;timestamp;pressure;altitude;pressure_sealevel;temperature;humidity
59104;BME280;51449;51.676;5.812;2024-03-23T00:56:14;100958.72;;;8.36;81.07
59104;BME280;51449;51.676;5.812;2024-03-23T00:58:34;100966.47;;;8.34;81.43
59104;BME280;51449;51.676;5.812;2024-03-23T01:00:55;100973.38;;;8.31;81.52
59104;BME280;51449;51.676;5.812;2024-03-23T01:03:16;100981.16;;;8.29;81.78
59104;BME280;51449;51.676;5.812;2024-03-23T01:05:38;100977.09;;;8.27;81.91
59104;BME280;51449;51.676;5.812;2024-03-23T01:07:58;100973.84;;;8.25;81.73
59104;BME280;51449;51.676;5.812;2024-03-23T01:10:19;100961.88;;;8.21;82.28
59104;BME280;51449;51.676;5.812;2024-03-23T01:12:40;100965.91;;;8.23;81.84
59104;BME280;51449;51.676;5.812;2024-03-23T01:15:01;100970.59;;;8.23;82.00
59104;BME280;51449;51.676;5.812;2024-03-23T01:17:21;100971.72;;;8.22;82.04
59104;BME280;51449;51.676;5.812;2024-03-23T01:19:42;100972.84;;;8.21;82.01
59104;BME280;51449;51.676;5.812;2024-03-23T01:22:03;100974.47;;;8.22;81.96
59104;BME280;51449;51.676;5.812;2024-03-23T01:24:25;100970.91;;;8.21;82.31
59104;BME280;51449;51.676;5.812;2024-03-23T01:26:47;100971.72;;;8.22;82.19
59104;BME280;51449;51.676;5.812;2024-03-23T01:29:09;100964.63;;;8.21;82.27
59104;BME280;51449;51.676;5.812;2024-03-23T01:31:29;100953.34;;;8.22;82.12
59104;BME280;51449;51.676;5.812;2024-03-23T01:33:50;100948.66;;;8.23;82.21
59104;BME280;51449;51.676;5.812;2024-03-23T01:36:11;100950.25;;;8.24;82.27
59104;BME280;51449;51.676;5.812;2024-03-23T01:38:31;100958.81;;;8.22;82.40
59104;BME280;51449;51.676;5.812;2024-03-23T01:40:58;100948.34;;;8.24;82.30
59104;BME280;51449;51.676;5.812;2024-03-23T01:43:19;100938.16;;;8.25;82.17
59104;BME280;51449;51.676;5.812;2024-03-23T01:45:40;100930.75;;;8.25;82.32
59104;BME280;51449;51.676;5.812;2024-03-23T01:48:01;100940.91;;;8.25;82.71
59104;BME280;51449;51.676;5.812;2024-03-23T01:50:23;100933.78;;;8.24;82.62
59104;BME280;51449;51.676;5.812;2024-03-23T01:52:47;100934.44;;;8.21;82.74
59104;BME280;51449;51.676;5.812;2024-03-23T01:55:08;100925.19;;;8.17;82.86
59104;BME280;51449;51.676;5.812;2024-03-23T01:57:29;100916.16;;;8.16;82.32
59104;BME280;51449;51.676;5.812;2024-03-23T01:59:50;100926.31;;;8.15;82.99
59104;BME280;51449;51.676;5.812;2024-03-23T02:02:19;100929.38;;;8.14;82.82
59104;BME280;51449;51.676;5.812;2024-03-23T02:04:40;100925.34;;;8.11;82.96
59104;BME280;51449;51.676;5.812;2024-03-23T02:07:01;100915.00;;;8.08;82.77
59104;BME280;51449;51.676;5.812;2024-03-23T02:09:21;100912.25;;;8.08;82.81
59104;BME280;51449;51.676;5.812;2024-03-23T02:11:42;100913.38;;;8.07;82.88
59104;BME280;51449;51.676;5.812;2024-03-23T02:14:03;100909.63;;;8.03;82.83
59104;BME280;51449;51.676;5.812;2024-03-23T02:16:24;100910.78;;;8.02;82.76
59104;BME280;51449;51.676;5.812;2024-03-23T02:18:45;100916.88;;;7.99;82.91
59104;BME280;51449;51.676;5.812;2024-03-23T02:21:05;100913.03;;;8.00;83.27
59104;BME280;51449;51.676;5.812;2024-03-23T02:23:26;100921.84;;;7.97;83.35
59104;BME280;51449;51.676;5.812;2024-03-23T02:25:47;100915.91;;;7.95;83.10
59104;BME280;51449;51.676;5.812;2024-03-23T02:28:08;100921.19;;;7.91;83.65
59104;BME280;51449;51.676;5.812;2024-03-23T02:30:29;100921.50;;;7.90;83.20
59104;BME280;51449;51.676;5.812;2024-03-23T02:32:49;100913.75;;;7.92;83.49
59104;BME280;51449;51.676;5.812;2024-03-23T02:35:10;100914.25;;;7.94;83.14
59104;BME280;51449;51.676;5.812;2024-03-23T02:37:31;100911.84;;;7.92;83.13
59104;BME280;51449;51.676;5.812;2024-03-23T02:39:52;100905.53;;;7.92;83.14
59104;BME280;51449;51.676;5.812;2024-03-23T02:42:13;100898.13;;;7.92;82.93
59104;BME280;51449;51.676;5.812;2024-03-23T02:44:36;100898.13;;;7.92;83.29
59104;BME280;51449;51.676;5.812;2024-03-23T02:46:56;100898.44;;;7.91;82.98
59104;BME280;51449;51.676;5.812;2024-03-23T02:49:17;100910.50;;;7.90;83.27
59104;BME280;51449;51.676;5.812;2024-03-23T02:51:38;100911.94;;;7.87;83.06
59104;BME280;51449;51.676;5.812;2024-03-23T02:53:59;100910.66;;;7.85;83.32
59104;BME280;51449;51.676;5.812;2024-03-23T02:56:20;100910.47;;;7.81;83.78
59104;BME280;51449;51.676;5.812;2024-03-23T02:58:42;100905.78;;;7.82;83.60
59104;BME280;51449;51.676;5.812;2024-03-23T03:01:03;100905.78;;;7.82;83.60
59104;BME280;51449;51.676;5.812;2024-03-23T03:03:24;100900.31;;;7.82;83.93
59104;BME280;51449;51.676;5.812;2024-03-23T03:05:45;100889.34;;;7.82;83.98
59104;BME280;51449;51.676;5.812;2024-03-23T03:08:06;100902.75;;;7.83;83.91
59104;BME280;51449;51.676;5.812;2024-03-23T03:10:27;100904.50;;;7.79;83.92
59104;BME280;51449;51.676;5.812;2024-03-23T03:12:47;100896.09;;;7.76;84.28
59104;BME280;51449;51.676;5.812;2024-03-23T03:15:08;100894.44;;;7.75;84.22
59104;BME280;51449;51.676;5.812;2024-03-23T03:17:30;100892.84;;;7.74;84.51
59104;BME280;51449;51.676;5.812;2024-03-23T03:19:51;100898.00;;;7.75;84.46
59104;BME280;51449;51.676;5.812;2024-03-23T03:22:16;100897.53;;;7.73;84.60
59104;BME280;51449;51.676;5.812;2024-03-23T03:24:37;100897.53;;;7.73;84.63
59104;BME280;51449;51.676;5.812;2024-03-23T03:26:57;100900.28;;;7.73;84.63
59104;BME280;51449;51.676;5.812;2024-03-23T03:29:18;100901.38;;;7.72;85.13
59104;BME280;51449;51.676;5.812;2024-03-23T03:31:39;100903.31;;;7.71;85.03
59104;BME280;51449;51.676;5.812;2024-03-23T03:34:00;100900.06;;;7.69;84.93
59104;BME280;51449;51.676;5.812;2024-03-23T03:36:21;100902.31;;;7.67;85.31
59104;BME280;51449;51.676;5.812;2024-03-23T03:38:42;100892.16;;;7.68;85.18
59104;BME280;51449;51.676;5.812;2024-03-23T03:41:03;100888.09;;;7.65;85.76
59104;BME280;51449;51.676;5.812;2024-03-23T03:43:24;100885.84;;;7.67;85.60
59104;BME280;51449;51.676;5.812;2024-03-23T03:45:52;100884.25;;;7.66;85.30
59104;BME280;51449;51.676;5.812;2024-03-23T03:48:13;100887.94;;;7.62;85.60
59104;BME280;51449;51.676;5.812;2024-03-23T03:50:34;100880.72;;;7.66;85.29
59104;BME280;51449;51.676;5.812;2024-03-23T03:52:55;100882.13;;;7.63;85.63
59104;BME280;51449;51.676;5.812;2024-03-23T03:55:17;100887.63;;;7.63;85.70
59104;BME280;51449;51.676;5.812;2024-03-23T03:57:38;100877.75;;;7.62;86.05
59104;BME280;51449;51.676;5.812;2024-03-23T03:59:58;100884.38;;;7.61;85.94
59104;BME280;51449;51.676;5.812;2024-03-23T04:02:19;100877.75;;;7.62;86.07
59104;BME280;51449;51.676;5.812;2024-03-23T04:04:40;100880.50;;;7.62;85.71
59104;BME280;51449;51.676;5.812;2024-03-23T04:07:01;100873.09;;;7.63;86.07
59104;BME280;51449;51.676;5.812;2024-03-23T04:09:22;100876.16;;;7.61;85.92
59104;BME280;51449;51.676;5.812;2024-03-23T04:11:43;100875.34;;;7.61;86.16
59104;BME280;51449;51.676;5.812;2024-03-23T04:14:04;100883.56;;;7.61;85.97
59104;BME280;51449;51.676;5.812;2024-03-23T04:16:29;100884.97;;;7.58;86.21
59104;BME280;51449;51.676;5.812;2024-03-23T04:18:50;100877.88;;;7.57;85.79
59104;BME280;51449;51.676;5.812;2024-03-23T04:21:11;100874.66;;;7.55;85.38
59104;BME280;51449;51.676;5.812;2024-03-23T04:23:32;100890.00;;;7.56;85.73
59104;BME280;51449;51.676;5.812;2024-03-23T04:25:52;100883.19;;;7.54;85.77
59104;BME280;51449;51.676;5.812;2024-03-23T04:28:13;100877.00;;;7.48;85.93
59104;BME280;51449;51.676;5.812;2024-03-23T04:30:34;100876.72;;;7.49;85.20
59104;BME280;51449;51.676;5.812;2024-03-23T04:32:55;100878.16;;;7.47;85.37
59104;BME280;51449;51.676;5.812;2024-03-23T04:35:18;100884.72;;;7.46;85.51
59104;BME280;51449;51.676;5.812;2024-03-23T04:37:40;100874.53;;;7.38;84.84
59104;BME280;51449;51.676;5.812;2024-03-23T04:40:01;100887.03;;;7.30;85.03
59104;BME280;51449;51.676;5.812;2024-03-23T04:42:23;100885.53;;;7.24;85.29
59104;BME280;51449;51.676;5.812;2024-03-23T04:44:44;100883.91;;;7.23;84.55
59104;BME280;51449;51.676;5.812;2024-03-23T04:47:05;100883.72;;;7.19;84.86
59104;BME280;51449;51.676;5.812;2024-03-23T04:49:27;100886.91;;;7.13;84.97
59104;BME280;51449;51.676;5.812;2024-03-23T04:51:48;100877.16;;;7.06;84.50
59104;BME280;51449;51.676;5.812;2024-03-23T04:54:10;100875.84;;;7.04;84.61
59104;BME280;51449;51.676;5.812;2024-03-23T04:56:31;100873.75;;;7.01;84.83
59104;BME280;51449;51.676;5.812;2024-03-23T04:58:52;100878.72;;;6.99;84.88
59104;BME280;51449;51.676;5.812;2024-03-23T05:01:13;100876.59;;;6.96;84.82
59104;BME280;51449;51.676;5.812;2024-03-23T05:03:34;100871.75;;;6.93;85.01
59104;BME280;51449;51.676;5.812;2024-03-23T05:05:55;100870.09;;;6.92;84.78
59104;BME280;51449;51.676;5.812;2024-03-23T05:08:16;100874.88;;;6.86;84.64
59104;BME280;51449;51.676;5.812;2024-03-23T05:10:37;100883.41;;;6.84;84.69
59104;BME280;51449;51.676;5.812;2024-03-23T05:12:58;100877.75;;;6.81;84.35
59104;BME280;51449;51.676;5.812;2024-03-23T05:15:19;100884.13;;;6.76;84.42
59104;BME280;51449;51.676;5.812;2024-03-23T05:17:39;100880.88;;;6.74;84.30
59104;BME280;51449;51.676;5.812;2024-03-23T05:20:00;100888.09;;;6.70;84.14
59104;BME280;51449;51.676;5.812;2024-03-23T05:22:21;100881.63;;;6.66;84.34
59104;BME280;51449;51.676;5.812;2024-03-23T05:24:42;100881.91;;;6.64;84.59
59104;BME280;51449;51.676;5.812;2024-03-23T05:27:05;100883.03;;;6.63;84.52
59104;BME280;51449;51.676;5.812;2024-03-23T05:29:26;100880.59;;;6.62;84.47
59104;BME280;51449;51.676;5.812;2024-03-23T05:31:49;100878.16;;;6.60;84.36
59104;BME280;51449;51.676;5.812;2024-03-23T05:34:10;100877.16;;;6.56;83.85
59104;BME280;51449;51.676;5.812;2024-03-23T05:36:30;100878.59;;;6.54;84.07
59104;BME280;51449;51.676;5.812;2024-03-23T05:38:53;100885.50;;;6.51;83.77
59104;BME280;51449;51.676;5.812;2024-03-23T05:41:13;100874.84;;;6.50;84.03
59104;BME280;51449;51.676;5.812;2024-03-23T05:43:34;100876.25;;;6.47;84.39
59104;BME280;51449;51.676;5.812;2024-03-23T05:45:55;100868.03;;;6.47;84.17
59104;BME280;51449;51.676;5.812;2024-03-23T05:48:17;100880.41;;;6.45;83.72
59104;BME280;51449;51.676;5.812;2024-03-23T05:50:38;100870.88;;;6.42;84.16
59104;BME280;51449;51.676;5.812;2024-03-23T05:52:59;100866.72;;;6.45;83.96
59104;BME280;51449;51.676;5.812;2024-03-23T05:55:21;100874.94;;;6.45;83.39
59104;BME280;51449;51.676;5.812;2024-03-23T05:57:41;100876.25;;;6.47;83.94
59104;BME280;51449;51.676;5.812;2024-03-23T06:00:02;100880.91;;;6.47;83.61
59104;BME280;51449;51.676;5.812;2024-03-23T06:02:32;100869.97;;;6.47;83.85
59104;BME280;51449;51.676;5.812;2024-03-23T06:04:53;100872.72;;;6.47;83.70
59104;BME280;51449;51.676;5.812;2024-03-23T06:07:13;100885.78;;;6.50;84.77
59104;BME280;51449;51.676;5.812;2024-03-23T06:09:35;100883.84;;;6.50;84.43
59104;BME280;51449;51.676;5.812;2024-03-23T06:11:55;100887.59;;;6.54;84.41
59104;BME280;51449;51.676;5.812;2024-03-23T06:14:16;100888.63;;;6.58;84.10
59104;BME280;51449;51.676;5.812;2024-03-23T06:16:37;100883.44;;;6.57;84.42
59104;BME280;51449;51.676;5.812;2024-03-23T06:18:58;100887.28;;;6.56;84.60
59104;BME280;51449;51.676;5.812;2024-03-23T06:21:19;100888.69;;;6.53;84.85
59104;BME280;51449;51.676;5.812;2024-03-23T06:23:40;100886.81;;;6.54;85.14
59104;BME280;51449;51.676;5.812;2024-03-23T06:26:02;100884.53;;;6.56;85.08
59104;BME280;51449;51.676;5.812;2024-03-23T06:28:23;100888.81;;;6.62;84.83
59104;BME280;51449;51.676;5.812;2024-03-23T06:30:44;100893.06;;;6.68;84.85
59104;BME280;51449;51.676;5.812;2024-03-23T06:33:05;100895.59;;;6.78;84.28
59104;BME280;51449;51.676;5.812;2024-03-23T06:35:29;100900.97;;;6.83;84.83
59104;BME280;51449;51.676;5.812;2024-03-23T06:37:49;100891.84;;;6.88;84.32
59104;BME280;51449;51.676;5.812;2024-03-23T06:40:10;100889.47;;;6.95;84.57
59104;BME280;51449;51.676;5.812;2024-03-23T06:42:31;100892.16;;;7.09;84.59
59104;BME280;51449;51.676;5.812;2024-03-23T06:44:52;100884.81;;;7.55;84.03
59104;BME280;51449;51.676;5.812;2024-03-23T06:47:13;100886.88;;;8.34;82.55
59104;BME280;51449;51.676;5.812;2024-03-23T06:49:34;100873.94;;;8.83;80.74
59104;BME280;51449;51.676;5.812;2024-03-23T06:51:55;100885.59;;;9.06;78.94
59104;BME280;51449;51.676;5.812;2024-03-23T06:54:16;100887.22;;;9.16;78.46
59104;BME280;51449;51.676;5.812;2024-03-23T06:56:38;100885.94;;;9.22;77.98
59104;BME280;51449;51.676;5.812;2024-03-23T06:58:59;100884.16;;;9.26;77.95
59104;BME280;51449;51.676;5.812;2024-03-23T07:01:20;100883.66;;;9.24;76.54
59104;BME280;51449;51.676;5.812;2024-03-23T07:03:41;100891.28;;;9.10;76.17
59104;BME280;51449;51.676;5.812;2024-03-23T07:06:02;100884.94;;;8.92;76.04
59104;BME280;51449;51.676;5.812;2024-03-23T07:08:23;100892.66;;;8.72;76.33
59104;BME280;51449;51.676;5.812;2024-03-23T07:10:44;100883.72;;;8.58;76.48
59104;BME280;51449;51.676;5.812;2024-03-23T07:13:05;100883.69;;;8.41;76.43
59104;BME280;51449;51.676;5.812;2024-03-23T07:15:26;100893.31;;;8.29;76.46
59104;BME280;51449;51.676;5.812;2024-03-23T07:17:48;100890.72;;;8.24;76.75
59104;BME280;51449;51.676;5.812;2024-03-23T07:20:10;100894.09;;;8.30;77.35
59104;BME280;51449;51.676;5.812;2024-03-23T07:22:32;100883.16;;;8.39;77.46
59104;BME280;51449;51.676;5.812;2024-03-23T07:24:53;100889.22;;;8.49;77.96
59104;BME280;51449;51.676;5.812;2024-03-23T07:27:14;100875.50;;;8.58;77.87
59104;BME280;51449;51.676;5.812;2024-03-23T07:29:35;100879.69;;;8.55;77.33
59104;BME280;51449;51.676;5.812;2024-03-23T07:31:58;100889.41;;;8.62;76.82
59104;BME280;51449;51.676;5.812;2024-03-23T07:34:19;100887.31;;;8.67;76.23
59104;BME280;51449;51.676;5.812;2024-03-23T07:36:40;100884.41;;;8.72;75.99
59104;BME280;51449;51.676;5.812;2024-03-23T07:39:01;100887.50;;;8.71;76.38
59104;BME280;51449;51.676;5.812;2024-03-23T07:41:23;100885.22;;;8.73;75.98
59104;BME280;51449;51.676;5.812;2024-03-23T07:43:44;100895.94;;;8.83;75.72
59104;BME280;51449;51.676;5.812;2024-03-23T07:46:06;100885.44;;;9.03;74.72
59104;BME280;51449;51.676;5.812;2024-03-23T07:48:27;100888.03;;;8.99;74.65
59104;BME280;51449;51.676;5.812;2024-03-23T07:50:57;100887.53;;;9.06;73.50
59104;BME280;51449;51.676;5.812;2024-03-23T07:53:21;100894.31;;;8.99;71.98
59104;BME280;51449;51.676;5.812;2024-03-23T07:55:42;100892.72;;;8.98;71.60
59104;BME280;51449;51.676;5.812;2024-03-23T07:58:14;100884.94;;;9.09;71.45
59104;BME280;51449;51.676;5.812;2024-03-23T08:00:35;100884.31;;;9.21;71.58
59104;BME280;51449;51.676;5.812;2024-03-23T08:02:56;100891.91;;;9.33;70.74
59104;BME280;51449;51.676;5.812;2024-03-23T08:05:17;100892.91;;;9.37;70.49
59104;BME280;51449;51.676;5.812;2024-03-23T08:07:38;100887.38;;;9.46;71.10
59104;BME280;51449;51.676;5.812;2024-03-23T08:09:59;100898.69;;;9.53;69.96
59104;BME280;51449;51.676;5.812;2024-03-23T08:12:20;100893.03;;;9.58;70.10
59104;BME280;51449;51.676;5.812;2024-03-23T08:14:41;100894.47;;;9.73;69.63
59104;BME280;51449;51.676;5.812;2024-03-23T08:17:02;100876.97;;;9.77;69.96
59104;BME280;51449;51.676;5.812;2024-03-23T08:19:23;100890.09;;;9.80;70.38
59104;BME280;51449;51.676;5.812;2024-03-23T08:21:43;100889.28;;;9.89;69.70
59104;BME280;51449;51.676;5.812;2024-03-23T08:24:04;100886.81;;;9.96;69.43
59104;BME280;51449;51.676;5.812;2024-03-23T08:26:26;100894.53;;;10.11;69.62
59104;BME280;51449;51.676;5.812;2024-03-23T08:28:47;100892.47;;;10.08;66.93
59104;BME280;51449;51.676;5.812;2024-03-23T08:31:09;100882.13;;;9.96;65.94
59104;BME280;51449;51.676;5.812;2024-03-23T08:33:31;100893.00;;;9.93;66.72
59104;BME280;51449;51.676;5.812;2024-03-23T08:35:56;100890.25;;;9.93;68.00
59104;BME280;51449;51.676;5.812;2024-03-23T08:38:19;100885.19;;;9.95;67.88
59104;BME280;51449;51.676;5.812;2024-03-23T08:40:40;100885.69;;;9.97;67.56
59104;BME280;51449;51.676;5.812;2024-03-23T08:43:00;100880.81;;;10.02;67.89
59104;BME280;51449;51.676;5.812;2024-03-23T08:45:21;100883.75;;;9.89;68.34
59104;BME280;51449;51.676;5.812;2024-03-23T08:47:42;100888.78;;;9.86;66.41
59104;BME280;51449;51.676;5.812;2024-03-23T08:50:03;100884.91;;;9.88;66.38
59104;BME280;51449;51.676;5.812;2024-03-23T08:52:25;100882.31;;;9.91;67.57
59104;BME280;51449;51.676;5.812;2024-03-23T08:54:49;100875.44;;;10.15;67.56
59104;BME280;51449;51.676;5.812;2024-03-23T08:57:09;100876.47;;;10.48;66.39
59104;BME280;51449;51.676;5.812;2024-03-23T08:59:30;100873.44;;;10.62;64.63
59104;BME280;51449;51.676;5.812;2024-03-23T09:01:51;100870.31;;;10.43;64.61
59104;BME280;51449;51.676;5.812;2024-03-23T09:04:12;100864.06;;;10.25;65.49
59104;BME280;51449;51.676;5.812;2024-03-23T09:06:36;100875.63;;;10.10;65.80
59104;BME280;51449;51.676;5.812;2024-03-23T09:08:57;100882.44;;;9.95;65.73
59104;BME280;51449;51.676;5.812;2024-03-23T09:11:18;100886.66;;;9.92;66.18
59104;BME280;51449;51.676;5.812;2024-03-23T09:13:39;100879.78;;;10.16;63.82
59104;BME280;51449;51.676;5.812;2024-03-23T09:16:02;100885.41;;;10.37;64.49
59104;BME280;51449;51.676;5.812;2024-03-23T09:18:23;100882.16;;;10.73;62.80
59104;BME280;51449;51.676;5.812;2024-03-23T09:20:45;100873.16;;;11.06;62.09
59104;BME280;51449;51.676;5.812;2024-03-23T09:23:05;100896.31;;;11.13;61.20
59104;BME280;51449;51.676;5.812;2024-03-23T09:25:26;100903.09;;;10.95;59.11
59104;BME280;51449;51.676;5.812;2024-03-23T09:27:47;100886.47;;;10.53;57.58
59104;BME280;51449;51.676;5.812;2024-03-23T09:30:09;100884.03;;;10.04;57.66
59104;BME280;51449;51.676;5.812;2024-03-23T09:32:31;100888.97;;;9.73;59.92
59104;BME280;51449;51.676;5.812;2024-03-23T09:34:51;100889.00;;;9.55;61.85
59104;BME280;51449;51.676;5.812;2024-03-23T09:37:12;100881.41;;;9.35;63.47
59104;BME280;51449;51.676;5.812;2024-03-23T09:39:33;100866.22;;;9.20;62.33
59104;BME280;51449;51.676;5.812;2024-03-23T09:41:59;100873.81;;;9.06;62.89
59104;BME280;51449;51.676;5.812;2024-03-23T09:44:20;100871.84;;;8.89;64.10
59104;BME280;51449;51.676;5.812;2024-03-23T09:46:41;100873.00;;;8.88;65.24
59104;BME280;51449;51.676;5.812;2024-03-23T09:49:02;100874.59;;;9.06;65.62
59104;BME280;51449;51.676;5.812;2024-03-23T09:51:25;100878.50;;;9.23;66.42
59104;BME280;51449;51.676;5.812;2024-03-23T09:53:46;100868.44;;;9.53;66.90
59104;BME280;51449;51.676;5.812;2024-03-23T09:56:12;100861.13;;;9.83;67.10
59104;BME280;51449;51.676;5.812;2024-03-23T09:58:33;100859.91;;;10.10;67.39
59104;BME280;51449;51.676;5.812;2024-03-23T10:00:53;100857.19;;;10.48;67.38
59104;BME280;51449;51.676;5.812;2024-03-23T10:03:14;100855.19;;;10.79;65.00
59104;BME280;51449;51.676;5.812;2024-03-23T10:05:35;100853.81;;;10.93;63.77
59104;BME280;51449;51.676;5.812;2024-03-23T10:07:56;100842.31;;;11.12;63.57
59104;BME280;51449;51.676;5.812;2024-03-23T10:10:17;100842.22;;;11.42;64.33
59104;BME280;51449;51.676;5.812;2024-03-23T10:12:45;100840.81;;;11.82;64.90
59104;BME280;51449;51.676;5.812;2024-03-23T10:17:40;100848.03;;;11.95;60.74
59104;BME280;51449;51.676;5.812;2024-03-23T10:20:01;100844.19;;;11.87;59.50
59104;BME280;51449;51.676;5.812;2024-03-23T10:22:22;100834.00;;;11.67;57.82
59104;BME280;51449;51.676;5.812;2024-03-23T10:24:45;100853.44;;;11.37;57.53
59104;BME280;51449;51.676;5.812;2024-03-23T10:27:06;100849.22;;;11.19;57.41
59104;BME280;51449;51.676;5.812;2024-03-23T10:29:27;100853.06;;;11.05;57.56
59104;BME280;51449;51.676;5.812;2024-03-23T10:31:48;100839.75;;;10.86;57.08
59104;BME280;51449;51.676;5.812;2024-03-23T10:34:12;100850.84;;;10.99;56.10
59104;BME280;51449;51.676;5.812;2024-03-23T10:36:33;100849.47;;;11.26;57.25
59104;BME280;51449;51.676;5.812;2024-03-23T10:38:54;100840.63;;;11.20;56.83
59104;BME280;51449;51.676;5.812;2024-03-23T10:41:15;100845.28;;;11.07;57.78
59104;BME280;51449;51.676;5.812;2024-03-23T10:43:37;100853.34;;;11.12;56.84
59104;BME280;51449;51.676;5.812;2024-03-23T10:45:58;100849.31;;;11.10;53.81
59104;BME280;51449;51.676;5.812;2024-03-23T10:48:19;100839.28;;;11.05;54.62
59104;BME280;51449;51.676;5.812;2024-03-23T10:50:41;100842.25;;;11.00;53.78
59104;BME280;51449;51.676;5.812;2024-03-23T10:53:02;100848.00;;;10.86;53.12
59104;BME280;51449;51.676;5.812;2024-03-23T10:55:23;100849.00;;;10.82;53.20
59104;BME280;51449;51.676;5.812;2024-03-23T10:57:45;100858.38;;;11.10;54.92
59104;BME280;51449;51.676;5.812;2024-03-23T11:00:10;100846.50;;;11.31;51.70
59104;BME280;51449;51.676;5.812;2024-03-23T11:02:32;100834.41;;;11.44;50.76
59104;BME280;51449;51.676;5.812;2024-03-23T11:04:53;100836.50;;;11.60;51.50
59104;BME280;51449;51.676;5.812;2024-03-23T11:09:46;100840.88;;;11.94;49.75
59104;BME280;51449;51.676;5.812;2024-03-23T11:17:25;100835.81;;;11.96;50.92
59104;BME280;51449;51.676;5.812;2024-03-23T11:22:17;100831.81;;;12.06;51.92
59104;BME280;51449;51.676;5.812;2024-03-23T11:24:58;100834.44;;;12.02;51.55
59104;BME280;51449;51.676;5.812;2024-03-23T11:27:18;100828.81;;;12.11;51.80
59104;BME280;51449;51.676;5.812;2024-03-23T11:29:40;100834.91;;;12.29;51.37
59104;BME280;51449;51.676;5.812;2024-03-23T11:32:02;100813.41;;;12.47;52.08
59104;BME280;51449;51.676;5.812;2024-03-23T11:34:24;100839.53;;;12.61;50.11
59104;BME280;51449;51.676;5.812;2024-03-23T11:36:46;100851.16;;;12.30;49.82
59104;BME280;51449;51.676;5.812;2024-03-23T11:39:14;100852.34;;;11.84;51.35
59104;BME280;51449;51.676;5.812;2024-03-23T11:41:55;100845.84;;;11.34;52.65
59104;BME280;51449;51.676;5.812;2024-03-23T11:44:21;100853.31;;;10.91;53.04
59104;BME280;51449;51.676;5.812;2024-03-23T11:46:43;100843.09;;;10.71;53.66
59104;BME280;51449;51.676;5.812;2024-03-23T11:49:04;100846.78;;;10.54;54.30
59104;BME280;51449;51.676;5.812;2024-03-23T11:51:25;100858.63;;;10.46;53.33
59104;BME280;51449;51.676;5.812;2024-03-23T11:53:47;100856.22;;;10.44;53.61
59104;BME280;51449;51.676;5.812;2024-03-23T11:56:08;100849.63;;;10.37;53.47
59104;BME280;51449;51.676;5.812;2024-03-23T11:58:29;100848.19;;;10.31;53.94
59104;BME280;51449;51.676;5.812;2024-03-23T12:03:18;100848.16;;;10.90;54.27
59104;BME280;51449;51.676;5.812;2024-03-23T12:05:42;100853.34;;;11.12;54.54
59104;BME280;51449;51.676;5.812;2024-03-23T12:08:29;100864.94;;;10.97;51.06
59104;BME280;51449;51.676;5.812;2024-03-23T12:11:04;100862.50;;;10.54;50.86
59104;BME280;51449;51.676;5.812;2024-03-23T12:13:32;100838.38;;;10.12;52.07
59104;BME280;51449;51.676;5.812;2024-03-23T12:15:53;100848.47;;;9.91;53.16
59104;BME280;51449;51.676;5.812;2024-03-23T12:18:14;100855.47;;;9.79;55.34
59104;BME280;51449;51.676;5.812;2024-03-23T12:20:35;100832.81;;;9.74;56.61
59104;BME280;51449;51.676;5.812;2024-03-23T12:23:11;100829.44;;;9.59;57.80
59104;BME280;51449;51.676;5.812;2024-03-23T12:25:35;100826.56;;;9.47;58.07
59104;BME280;51449;51.676;5.812;2024-03-23T12:27:59;100820.22;;;9.55;58.32
59104;BME280;51449;51.676;5.812;2024-03-23T12:30:20;100815.94;;;9.84;59.25
59104;BME280;51449;51.676;5.812;2024-03-23T12:32:41;100813.25;;;10.14;60.02
59104;BME280;51449;51.676;5.812;2024-03-23T12:35:02;100803.09;;;10.44;59.84
59104;BME280;51449;51.676;5.812;2024-03-23T12:37:23;100806.00;;;10.68;59.67
59104;BME280;51449;51.676;5.812;2024-03-23T12:39:49;100808.47;;;10.82;58.36
59104;BME280;51449;51.676;5.812;2024-03-23T12:42:10;100802.38;;;10.77;58.18
59104;BME280;51449;51.676;5.812;2024-03-23T12:44:30;100803.72;;;10.70;57.48
59104;BME280;51449;51.676;5.812;2024-03-23T12:46:51;100796.50;;;10.57;57.25
59104;BME280;51449;51.676;5.812;2024-03-23T12:49:12;100802.13;;;10.40;57.45
59104;BME280;51449;51.676;5.812;2024-03-23T12:51:34;100798.41;;;10.36;56.88
59104;BME280;51449;51.676;5.812;2024-03-23T12:53:54;100816.94;;;10.18;56.17
59104;BME280;51449;51.676;5.812;2024-03-23T12:56:15;100834.22;;;9.97;57.44
59104;BME280;51449;51.676;5.812;2024-03-23T12:58:36;100827.31;;;9.74;58.46
59104;BME280;51449;51.676;5.812;2024-03-23T13:00:58;100821.06;;;9.38;60.34
59104;BME280;51449;51.676;5.812;2024-03-23T13:03:19;100825.31;;;9.10;62.66
59104;BME280;51449;51.676;5.812;2024-03-23T13:05:40;100823.19;;;9.07;63.95
59104;BME280;51449;51.676;5.812;2024-03-23T13:08:01;100821.91;;;9.30;65.73
59104;BME280;51449;51.676;5.812;2024-03-23T13:10:22;100820.56;;;9.45;65.97
59104;BME280;51449;51.676;5.812;2024-03-23T13:12:43;100815.03;;;9.71;66.21
59104;BME280;51449;51.676;5.812;2024-03-23T13:15:04;100816.56;;;9.90;66.73
59104;BME280;51449;51.676;5.812;2024-03-23T13:17:25;100815.81;;;9.80;66.14
59104;BME280;51449;51.676;5.812;2024-03-23T13:19:47;100827.75;;;9.84;66.22
59104;BME280;51449;51.676;5.812;2024-03-23T13:22:08;100816.22;;;10.00;65.33
59104;BME280;51449;51.676;5.812;2024-03-23T13:24:32;100817.47;;;10.11;65.56
59104;BME280;51449;51.676;5.812;2024-03-23T13:26:53;100814.97;;;10.27;63.80
59104;BME280;51449;51.676;5.812;2024-03-23T13:29:15;100825.34;;;10.21;62.25
59104;BME280;51449;51.676;5.812;2024-03-23T13:31:36;100815.09;;;10.01;58.19
59104;BME280;51449;51.676;5.812;2024-03-23T13:33:57;100826.47;;;9.82;59.24
59104;BME280;51449;51.676;5.812;2024-03-23T13:36:18;100819.25;;;9.60;61.42
59104;BME280;51449;51.676;5.812;2024-03-23T13:38:38;100824.97;;;9.46;62.35